Legend :    VFR   Marginal VFR   IFR   Intensive IFR   Very Intensive IFR
Visi :
Ceiling :
>= 8 km
>= 3000ft
5 to 8 km
1000 to 3000 ft
1500m to 5 km
500 to 1000 ft
800 to 1500m
200 to 500 ft
< 800m
< 200 ft
Symbols :   Thunderstorms  Fog  Heavy snow  Heavy precipitations  Wind > 20 kt






- Airport Elevation : 1333 ft
- IATA code : ICT


KICT - Wichita Mid Continent

CURRENT METAR :
  • 201053Z 00000KT 10SM CLR M08/M11 A3056 RMK AO2 SLP363 T10781111

EXPIRED METARs :
  • 200953Z 09003KT 10SM CLR M07/M12 A3056 RMK AO2 SLP362 T10721117
  • 200853Z 10005KT 10SM CLR M07/M11 A3056 RMK AO2 SLP365 T10671111 58009

TAF KICT
Valid from the 20 at 12:00 until the 21 at 12:00 UTC


201120Z 2012/2112 00000KT P6SM SKC
FM202100 06006KT P6SM SKC


LOGIN :  

Disclaimer |     EN      FR      IT